x

East Bahamas - 335 Nm East Of San Salvador Is, Bahamas (41046) Wave Buoy

9:50am - Sat 1st Nov 2014 All times are UTC.

  • Sig Wave height 3.9ft
  • Swell Direction
  • Peak Period 8s
  • Average Period 6s
  • Wind
    13mph, 16mph gusts
  • Sea Temp 84°f
  • Air Temp 82°f
  • Sea Pressure 1012mb

More Historic Weather Station data

Upgrade to MSW Pro to gain access to the past 30 days of data for over 8000 Wavebouys and Weather Stations around the globe.

Join Pro

Comparision Forecast

View Surf forecast
   
Sat 11/01 9:50am 4ft 8s 6s 13 16 mph 1012mb 84f 82f
8:50am 4.5ft 8s 7s 13 18 mph 1011.5mb 84f 82f
7:50am 4ft 8s 6s 13 16 mph 1011.5mb 84f 82f
6:50am 4.5ft 8s 7s 13
mph
1011.5mb 84f 82f
5:50am 4.5ft 9s 7s 9 13 mph 1012mb 84f 82f
4:50am 4.5ft 8s 7s 9
mph
1012.3mb 84f 82f
3:50am 4.5ft 9s 7s 7 9 mph 1012.4mb 84f 82f
2:50am 5ft 9s 7s 7 9 mph 1012.7mb 84f 82f
1:50am 4.5ft 8s 7s 7 9 mph 1012.7mb 84f 82f
12:50am 5ft 8s 7s 7
mph
1012.6mb 84f 82f
Fri 10/31 11:50pm 5ft 8s 7s 7 9 mph 1011.9mb 84f 82f
10:50pm 5ft 8s 7s 7 9 mph 1010.9mb 84f 82f
9:50pm 4.5ft 8s 7s  -  2 mph 1010.6mb 85f 82f
8:50pm 4.5ft 8s 7s 4
mph
1010.3mb 85f 81f
7:50pm 5ft 8s 7s 16 20 mph 1009.6mb 85f 80f
6:50pm 4.5ft 9s 7s 2 4 mph 1009.7mb 85f 83f
5:50pm 4ft 8s 6s 2 4 mph 1009.8mb 86f 82f
4:50pm 3.5ft 9s 6s  -  2 mph 1010.7mb 86f 82f
3:50pm 4.5ft 8s 7s  -  2 mph 1011.2mb 85f 83f
2:50pm 5ft 8s 7s 2 4 mph 1011.7mb 84f 82f
1:50pm 4.5ft 9s 6s 2 4 mph 1011.6mb 84f 82f
12:50pm 4.5ft 7s 6s 2 4 mph 1011.3mb 83f 83f
11:50am 4.5ft 8s 6s 2 4 mph 1010.8mb 83f 83f
10:50am 5ft 9s 6s  -  2 mph 1010.2mb 83f 81f
9:50am 5.5ft 9s 7s 4 7 mph 1009.8mb 83f 80f
8:50am 5ft 8s 6s 7 9 mph 1009.3mb 83f 80f
7:50am 5ft 9s 6s 4 7 mph 1009mb 83f 81f
6:50am 5ft 9s 7s 2 4 mph 1009.2mb 83f 81f
5:50am 5ft 9s 6s 4 7 mph 1009.4mb 84f 81f
4:50am 4.5ft 9s 6s 4 7 mph 1009.9mb 84f 82f
3:50am 5ft 10s 7s 9 11 mph 1010.4mb 84f 82f
2:50am 5.5ft 8s 7s 9 11 mph 1010.8mb 84f 82f
1:50am 5ft 9s 6s 7 11 mph 1011mb 84f 82f
12:50am 5.5ft 9s 7s 9 11 mph 1011mb 84f 82f
Thu 10/30 11:50pm 5ft 10s 7s 11 13 mph 1010.5mb 84f 82f
10:50pm 5.5ft 9s 7s 9 11 mph 1010.2mb 84f 82f
9:50pm 5ft 8s 7s 9 11 mph 1010.1mb 84f 82f
8:50pm 5ft 8s 7s 7 9 mph 1010mb 84f 83f
7:50pm 5ft 8s 7s 11 13 mph 1009.9mb 84f 82f
6:50pm 5ft 9s 6s 9 11 mph 1009.9mb 84f 82f
5:50pm 4.5ft 9s 6s 9 11 mph 1010.5mb 84f 82f
4:50pm 4.5ft 8s 6s 9 11 mph 1011.4mb 84f 82f
3:50pm 5ft 9s 6s 9 11 mph 1012mb 84f 82f
2:50pm 5ft 8s 6s 11 13 mph 1012.2mb 84f 82f
1:50pm 5ft 7s 6s 11 13 mph 1012.4mb 84f 82f
12:50pm 4.5ft 9s 6s 11 13 mph 1012.4mb 83f 82f
11:50am 4.5ft 7s 6s 11 13 mph 1012.2mb 83f 82f
10:50am 4.5ft 9s 6s 11 16 mph 1011.9mb 83f 82f
9:50am 5ft 9s 6s 11 13 mph 1011.5mb 83f 82f
8:50am 4.5ft 8s 6s 13 16 mph 1011.1mb 83f 82f
7:50am 5ft 9s 6s 13 16 mph 1011.1mb 84f 82f
6:50am 5ft 8s 6s 13 16 mph 1011.3mb 83f 82f
5:50am 5ft 8s 6s 11 16 mph 1012.3mb 83f 82f
4:50am 4.5ft 9s 6s 13 16 mph 1012.9mb 83f 82f
3:50am 5ft 8s 6s 13 16 mph 1013.1mb 83f 82f
2:50am 5ft 8s 6s 13 16 mph 1013.7mb 83f 82f
1:50am 5ft 8s 6s 9 11 mph 1014.3mb 83f 79f
12:50am 5ft 7s 6s 13 20 mph 1014.5mb 84f 78f
Wed 10/29 11:50pm 6ft 8s 6s 9 13 mph 1014mb 84f 82f
10:50pm 5.5ft 8s 6s 9 13 mph 1013.6mb 84f 82f
9:50pm 5ft 7s 6s 9 11 mph 1013.2mb 84f 82f
8:50pm 5ft 8s 6s 7 9 mph 1013.2mb 84f 83f
7:50pm 5ft 8s 6s 9 11 mph 1013.5mb 84f 82f
6:50pm 5.5ft 8s  -  4 7 mph 1013.8mb 84f 82f
4:50pm 5ft 8s 6s 11 13 mph 1014.6mb 84f 83f
2:50pm 5ft 8s 6s 11 13 mph 1016.2mb 84f 83f
12:50pm 6ft 8s 6s 13 16 mph 1015.8mb 84f 83f
11:50am 5ft 8s 6s 13 16 mph 1015.6mb 83f 83f
10:50am 5ft 9s 6s 11 16 mph 1015.2mb 83f 82f
9:50am 5ft 8s 6s 11 13 mph 1014.8mb 83f 81f
8:50am 5.5ft 7s 6s 16 18 mph 1014.5mb 84f 81f
7:50am 5.5ft 7s 6s 13 16 mph 1014.7mb 84f 82f
6:50am 5ft 8s 6s 13 16 mph 1014.9mb 84f 81f
5:50am 5.5ft 7s 6s 13 16 mph 1015.2mb 84f 82f
4:50am 6ft 8s 6s 13 16 mph 1015.7mb 84f 81f
3:50am 6.5ft 7s 6s 16 20 mph 1015.9mb 84f 82f
2:50am 6.5ft 7s 6s 16 18 mph 1016.2mb 84f 82f
1:50am 6ft 8s 6s 16 18 mph 1016.2mb 83f 82f
12:50am 6ft 8s 6s 16 18 mph 1015.9mb 83f 82f
Tue 10/28 11:50pm 6.5ft 8s 6s 18 22 mph 1015.3mb 83f 82f
10:50pm 6ft 7s 6s 16 20 mph 1015mb 83f 81f
9:50pm 5.5ft 8s 6s 13 16 mph 1015.1mb 83f 82f
8:50pm 5ft 7s 6s 20 27 mph 1015mb 83f 78f
7:50pm 5ft 8s 6s 7 9 mph 1015mb 83f 80f
6:50pm 5ft 7s 6s 7 11 mph 1015.3mb 83f 80f
5:50pm 4.5ft 7s 5s 9 11 mph 1015.5mb 83f 80f
4:50pm 5ft 7s 6s 9 13 mph 1015.9mb 83f 80f
3:50pm 5ft 6s 6s 13 16 mph 1016.8mb 83f 79f
2:50pm 5ft 7s 5s 11 13 mph 1017.2mb 83f 76f
1:50pm 5ft 7s 6s 16 18 mph 1017.6mb 83f 75f
12:50pm 5ft 7s 6s 11 16 mph 1017.5mb 82f 73f
11:50am 5ft 7s 6s 7 11 mph 1017.2mb 83f 73f
10:50am 5ft 7s 6s 9 11 mph 1016.7mb 83f 72f